Time;durP1;ratioP1;P1;durP2;ratioP2;P2;SDS_P1;SDS_P2;PMS_P1;PMS_P2;Temp;Humidity;BMP_temperature;BMP_pressure;BME280_temperature;BME280_humidity;BME280_pressure;Samples;Min_cycle;Max_cycle;Signal;HPM_P1;HPM_P2
2022/01/27 00:05:17;;;;;;;48.40;22.45;;;;;;;;;;5030558;28;20104;-69
2022/01/27 00:11:00;;;;;;;40.63;21.27;;;;;;;;;;5031544;28;20025;-69
2022/01/27 00:13:56;;;;;;;46.13;23.98;;;;;;;;;;5024847;28;20030;-69
2022/01/27 00:16:52;;;;;;;46.55;22.70;;;;;;;;;;5024613;28;20097;-69
2022/01/27 00:19:40;;;;;;;50.92;24.88;;;;;;;;;;5029713;28;20037;-70
2022/01/27 00:22:27;;;;;;;44.38;24.65;;;;;;;;;;5031377;28;20033;-69
2022/01/27 00:25:13;;;;;;;51.67;23.33;;;;;;;;;;5017256;28;20030;-69
2022/01/27 00:27:59;;;;;;;50.45;23.13;;;;;;;;;;5016812;28;20100;-70
2022/01/27 00:30:44;;;;;;;51.88;24.48;;;;;;;;;;5030678;28;20025;-70
2022/01/27 00:33:30;;;;;;;62.17;27.63;;;;;;;;;;5013141;28;20104;-70
2022/01/27 00:36:16;;;;;;;56.67;26.58;;;;;;;;;;5031094;28;20526;-70
2022/01/27 00:39:02;;;;;;;49.45;24.98;;;;;;;;;;5030398;28;20029;-70
2022/01/27 00:41:48;;;;;;;53.55;23.35;;;;;;;;;;5030554;28;20053;-70
2022/01/27 00:44:33;;;;;;;47.92;25.40;;;;;;;;;;5031199;28;20489;-71
2022/01/27 00:47:19;;;;;;;59.70;24.80;;;;;;;;;;5014914;28;20037;-74
2022/01/27 00:50:05;;;;;;;54.13;25.63;;;;;;;;;;5013468;28;20396;-70
2022/01/27 00:52:54;;;;;;;51.60;28.20;;;;;;;;;;5016965;28;20112;-70
2022/01/27 00:55:41;;;;;;;62.83;24.85;;;;;;;;;;5025038;28;20037;-69
2022/01/27 00:58:44;;;;;;;48.47;23.52;;;;;;;;;;5025113;28;20089;-69
2022/01/27 01:01:36;;;;;;;52.58;24.35;;;;;;;;;;5003698;28;20127;-69
2022/01/27 01:04:28;;;;;;;46.88;24.17;;;;;;;;;;5011022;28;20040;-69
2022/01/27 01:07:15;;;;;;;56.42;24.95;;;;;;;;;;5030214;28;20025;-69
2022/01/27 01:16:51;;;;;;;56.90;25.30;;;;;;;;;;4949917;28;20046;-70
2022/01/27 01:20:09;;;;;;;62.13;26.13;;;;;;;;;;5026369;28;20021;-68
2022/01/27 01:34:58;;;;;;;53.58;26.55;;;;;;;;;;5038118;28;20063;-70
2022/01/27 01:37:44;;;;;;;50.65;25.27;;;;;;;;;;5014446;28;20057;-70
2022/01/27 01:40:29;;;;;;;51.08;24.30;;;;;;;;;;5006309;28;20022;-68
2022/01/27 01:43:16;;;;;;;50.38;23.90;;;;;;;;;;5010428;28;20034;-69
2022/01/27 01:46:01;;;;;;;63.00;27.08;;;;;;;;;;5027627;28;20049;-71
2022/01/27 01:48:47;;;;;;;60.72;26.83;;;;;;;;;;5027543;28;20025;-71
2022/01/27 01:51:34;;;;;;;60.55;28.48;;;;;;;;;;5037219;28;20055;-72
2022/01/27 01:54:19;;;;;;;54.67;26.38;;;;;;;;;;5029372;28;20029;-72
2022/01/27 01:57:05;;;;;;;59.47;27.38;;;;;;;;;;5029962;28;20041;-71
2022/01/27 01:59:51;;;;;;;56.90;27.45;;;;;;;;;;5030293;28;20086;-73
2022/01/27 02:02:36;;;;;;;63.47;28.10;;;;;;;;;;5028339;28;20025;-68
2022/01/27 02:05:26;;;;;;;52.67;24.75;;;;;;;;;;5016122;28;20084;-70
2022/01/27 02:19:59;;;;;;;60.75;27.38;;;;;;;;;;5024173;28;20096;-72
2022/01/27 02:22:45;;;;;;;48.40;25.17;;;;;;;;;;5028664;28;20026;-72
2022/01/27 02:25:30;;;;;;;54.78;25.77;;;;;;;;;;5029411;28;20029;-71
2022/01/27 02:28:16;;;;;;;56.83;27.50;;;;;;;;;;5014901;28;20040;-72
2022/01/27 02:31:01;;;;;;;54.65;26.13;;;;;;;;;;5024081;28;20022;-71
2022/01/27 02:33:55;;;;;;;57.28;26.92;;;;;;;;;;5023323;28;20029;-72
2022/01/27 02:36:40;;;;;;;50.63;25.98;;;;;;;;;;5028380;28;20025;-70
2022/01/27 02:39:26;;;;;;;51.97;23.55;;;;;;;;;;5028558;28;20029;-68
2022/01/27 02:42:30;;;;;;;60.30;27.17;;;;;;;;;;5014527;28;20107;-67
2022/01/27 02:45:26;;;;;;;47.70;22.80;;;;;;;;;;5027668;28;20100;-68
2022/01/27 02:48:12;;;;;;;53.25;25.65;;;;;;;;;;5028390;28;20030;-68
2022/01/27 02:50:58;;;;;;;48.75;23.85;;;;;;;;;;5009048;28;20729;-69
2022/01/27 02:53:43;;;;;;;47.85;23.60;;;;;;;;;;5029839;28;20030;-68
2022/01/27 02:56:29;;;;;;;47.08;23.27;;;;;;;;;;5025502;28;20039;-68
2022/01/27 02:59:15;;;;;;;47.90;25.17;;;;;;;;;;4998910;28;20028;-69
2022/01/27 03:02:01;;;;;;;44.42;23.77;;;;;;;;;;5028138;28;20112;-68
2022/01/27 03:04:46;;;;;;;46.30;23.48;;;;;;;;;;5022716;28;20111;-69
2022/01/27 03:07:32;;;;;;;44.08;23.85;;;;;;;;;;5026050;28;20025;-70
2022/01/27 03:10:18;;;;;;;49.30;24.10;;;;;;;;;;5029193;28;20133;-70
2022/01/27 03:13:03;;;;;;;46.80;24.40;;;;;;;;;;5028759;28;20432;-66
2022/01/27 03:15:49;;;;;;;46.58;23.15;;;;;;;;;;5027685;28;20100;-70
2022/01/27 03:18:35;;;;;;;41.88;22.88;;;;;;;;;;5013198;28;20017;-70
2022/01/27 03:21:21;;;;;;;43.88;22.20;;;;;;;;;;5013969;28;20048;-69
2022/01/27 03:24:06;;;;;;;40.03;21.77;;;;;;;;;;5028298;28;20036;-70
2022/01/27 03:26:53;;;;;;;40.33;21.85;;;;;;;;;;5014324;28;20400;-69
2022/01/27 03:29:39;;;;;;;39.40;21.83;;;;;;;;;;5028717;28;20132;-70
2022/01/27 03:32:26;;;;;;;39.72;21.90;;;;;;;;;;5016669;28;20332;-69
2022/01/27 03:35:11;;;;;;;38.65;19.73;;;;;;;;;;5017121;28;20208;-68
2022/01/27 03:37:57;;;;;;;37.67;20.45;;;;;;;;;;5032061;28;20037;-68
2022/01/27 03:40:43;;;;;;;33.22;19.08;;;;;;;;;;5015563;28;20157;-69
2022/01/27 03:43:28;;;;;;;38.80;20.23;;;;;;;;;;5017291;28;20112;-68
2022/01/27 03:46:15;;;;;;;36.80;20.08;;;;;;;;;;5030763;28;20408;-68
2022/01/27 03:49:00;;;;;;;34.92;19.10;;;;;;;;;;5032363;28;20033;-69
2022/01/27 03:51:46;;;;;;;35.72;20.55;;;;;;;;;;5020353;28;20018;-69
2022/01/27 03:54:31;;;;;;;36.85;19.38;;;;;;;;;;5028608;28;20090;-73
2022/01/27 03:57:17;;;;;;;40.97;21.38;;;;;;;;;;5017688;28;20034;-73
2022/01/27 04:00:04;;;;;;;36.88;20.08;;;;;;;;;;5014425;28;20053;-73
2022/01/27 04:03:13;;;;;;;33.08;18.90;;;;;;;;;;5021682;28;20029;-73
2022/01/27 04:06:03;;;;;;;31.23;19.42;;;;;;;;;;5030473;28;20105;-73
2022/01/27 04:08:49;;;;;;;30.65;18.48;;;;;;;;;;5016689;28;20025;-72
2022/01/27 04:11:35;;;;;;;32.63;19.33;;;;;;;;;;5017677;28;20022;-70
2022/01/27 04:14:21;;;;;;;35.10;18.67;;;;;;;;;;5026061;28;20608;-68
2022/01/27 04:17:06;;;;;;;38.03;21.58;;;;;;;;;;5016337;28;20033;-66
2022/01/27 04:19:52;;;;;;;39.65;19.35;;;;;;;;;;5031804;28;20036;-68
2022/01/27 04:22:37;;;;;;;37.55;20.67;;;;;;;;;;5032125;28;20368;-68
2022/01/27 04:25:23;;;;;;;42.25;21.67;;;;;;;;;;5031714;28;20036;-68
2022/01/27 04:28:12;;;;;;;37.53;20.30;;;;;;;;;;5016719;28;20029;-73
2022/01/27 04:31:01;;;;;;;34.92;20.27;;;;;;;;;;5010997;28;20040;-72
2022/01/27 04:33:47;;;;;;;39.45;20.88;;;;;;;;;;5031200;28;20480;-74
2022/01/27 04:36:35;;;;;;;35.28;19.27;;;;;;;;;;5030061;28;20551;-73
2022/01/27 04:39:51;;;;;;;41.30;20.35;;;;;;;;;;5022513;28;20374;-76
2022/01/27 04:42:52;;;;;;;37.83;20.33;;;;;;;;;;5013763;28;20042;-73
2022/01/27 04:46:32;;;;;;;34.60;21.48;;;;;;;;;;5011058;28;20021;-70
2022/01/27 04:48:49;;;;;;;33.50;19.90;;;;;;;;;;5028481;28;20088;-65
2022/01/27 04:51:35;;;;;;;41.65;24.15;;;;;;;;;;5025026;28;20025;-66
2022/01/27 04:54:27;;;;;;;38.38;22.83;;;;;;;;;;5025266;28;20528;-65
2022/01/27 04:57:12;;;;;;;40.83;22.83;;;;;;;;;;5025512;28;20516;-65
2022/01/27 04:59:58;;;;;;;41.92;22.88;;;;;;;;;;5029960;28;20040;-64
2022/01/27 05:02:49;;;;;;;38.90;22.60;;;;;;;;;;5021804;28;20025;-65
2022/01/27 05:05:37;;;;;;;37.85;23.50;;;;;;;;;;5008952;28;20030;-65
2022/01/27 05:08:23;;;;;;;37.10;23.20;;;;;;;;;;5028429;28;20072;-68
2022/01/27 05:14:13;;;;;;;40.53;24.40;;;;;;;;;;5020905;28;20080;-70
2022/01/27 05:16:59;;;;;;;39.15;24.20;;;;;;;;;;5026906;28;20040;-68
2022/01/27 05:19:47;;;;;;;42.05;24.17;;;;;;;;;;5017086;28;20060;-69
2022/01/27 05:22:33;;;;;;;41.00;23.95;;;;;;;;;;5015582;28;20021;-69
2022/01/27 05:25:18;;;;;;;39.50;24.40;;;;;;;;;;5005881;28;20120;-69
2022/01/27 05:28:04;;;;;;;41.97;24.20;;;;;;;;;;5029769;28;20103;-69
2022/01/27 05:30:50;;;;;;;39.53;22.95;;;;;;;;;;5029485;28;20072;-68
2022/01/27 05:33:35;;;;;;;44.83;26.02;;;;;;;;;;5024445;28;20025;-69
2022/01/27 05:36:21;;;;;;;40.38;24.30;;;;;;;;;;5029978;28;20065;-69
2022/01/27 05:39:07;;;;;;;40.33;24.80;;;;;;;;;;5013276;28;20512;-69
2022/01/27 05:41:52;;;;;;;39.67;23.27;;;;;;;;;;5026207;28;20096;-69
2022/01/27 05:44:38;;;;;;;40.72;24.50;;;;;;;;;;5030280;28;20344;-69
2022/01/27 05:47:23;;;;;;;42.38;25.65;;;;;;;;;;5006408;28;20041;-69
2022/01/27 05:50:09;;;;;;;41.92;25.48;;;;;;;;;;5015068;28;20079;-68
2022/01/27 05:52:55;;;;;;;43.05;27.00;;;;;;;;;;5027787;28;20238;-71
2022/01/27 05:55:40;;;;;;;43.53;27.63;;;;;;;;;;5036638;28;20029;-70
2022/01/27 05:58:26;;;;;;;36.25;24.25;;;;;;;;;;5014400;28;20080;-69
2022/01/27 06:01:12;;;;;;;38.05;24.65;;;;;;;;;;5020873;28;20017;-64
2022/01/27 06:03:57;;;;;;;39.33;23.50;;;;;;;;;;5021551;28;20056;-73
2022/01/27 06:06:44;;;;;;;38.40;24.13;;;;;;;;;;5015008;28;20040;-76
2022/01/27 06:09:30;;;;;;;37.60;23.65;;;;;;;;;;5014747;28;20032;-74
2022/01/27 06:12:15;;;;;;;39.35;23.55;;;;;;;;;;5028863;28;20323;-74
2022/01/27 06:15:01;;;;;;;40.28;24.17;;;;;;;;;;5008297;28;20056;-73
2022/01/27 06:17:47;;;;;;;37.28;23.30;;;;;;;;;;5014013;28;20509;-70
2022/01/27 06:20:33;;;;;;;38.78;24.20;;;;;;;;;;5026339;28;20025;-69
2022/01/27 06:23:18;;;;;;;42.13;25.52;;;;;;;;;;5009783;28;20120;-69
2022/01/27 06:26:04;;;;;;;38.75;24.95;;;;;;;;;;5012043;28;20466;-69
2022/01/27 06:28:50;;;;;;;44.30;25.75;;;;;;;;;;5027249;28;20034;-70
2022/01/27 06:31:35;;;;;;;43.65;26.52;;;;;;;;;;5026033;28;20018;-70
2022/01/27 06:34:21;;;;;;;38.95;23.70;;;;;;;;;;5025669;28;20106;-69
2022/01/27 06:37:06;;;;;;;37.70;22.45;;;;;;;;;;5012230;28;20033;-69
2022/01/27 06:39:52;;;;;;;42.38;25.05;;;;;;;;;;5031610;28;20023;-75
2022/01/27 06:42:38;;;;;;;39.38;24.67;;;;;;;;;;5027463;28;20290;-73
2022/01/27 06:45:23;;;;;;;37.38;22.40;;;;;;;;;;5026160;28;20025;-71
2022/01/27 06:48:09;;;;;;;34.95;21.90;;;;;;;;;;5027558;28;20075;-73
2022/01/27 06:50:56;;;;;;;43.22;24.60;;;;;;;;;;5026229;28;20021;-67
2022/01/27 06:53:41;;;;;;;36.83;22.23;;;;;;;;;;5025839;28;20021;-69
2022/01/27 06:56:27;;;;;;;37.17;23.83;;;;;;;;;;5010873;28;20076;-75
2022/01/27 06:59:13;;;;;;;39.25;24.48;;;;;;;;;;5012152;28;20029;-70
2022/01/27 07:01:59;;;;;;;35.88;21.70;;;;;;;;;;5023973;28;20074;-71
2022/01/27 07:04:44;;;;;;;37.78;22.33;;;;;;;;;;5025275;28;20044;-72
2022/01/27 07:07:30;;;;;;;38.47;23.27;;;;;;;;;;5031042;28;20021;-71
2022/01/27 07:10:16;;;;;;;36.95;23.15;;;;;;;;;;5030579;28;20025;-70
2022/01/27 07:13:01;;;;;;;42.50;24.60;;;;;;;;;;5023496;28;20029;-69
2022/01/27 07:15:47;;;;;;;38.10;23.23;;;;;;;;;;5028957;28;20392;-67
2022/01/27 07:18:32;;;;;;;39.30;24.60;;;;;;;;;;5015969;28;20026;-69
2022/01/27 07:21:21;;;;;;;43.17;24.45;;;;;;;;;;5031060;28;20475;-70
2022/01/27 07:24:06;;;;;;;46.33;24.05;;;;;;;;;;5030082;28;20021;-70
2022/01/27 07:26:52;;;;;;;38.65;23.58;;;;;;;;;;5034201;28;20017;-69
2022/01/27 07:29:38;;;;;;;38.78;21.40;;;;;;;;;;5022519;28;20097;-68
2022/01/27 07:32:24;;;;;;;37.63;21.40;;;;;;;;;;5030867;28;20051;-70
2022/01/27 07:35:09;;;;;;;36.25;20.80;;;;;;;;;;5016724;28;20033;-68
2022/01/27 07:37:55;;;;;;;44.33;22.23;;;;;;;;;;5028974;28;20152;-68
2022/01/27 07:40:41;;;;;;;40.67;22.20;;;;;;;;;;5032868;28;20041;-67
2022/01/27 07:43:26;;;;;;;34.75;19.10;;;;;;;;;;5040492;28;20656;-69
2022/01/27 07:46:13;;;;;;;37.58;20.45;;;;;;;;;;5015348;28;20068;-69
2022/01/27 07:48:58;;;;;;;35.08;19.63;;;;;;;;;;5028890;28;20033;-69
2022/01/27 07:51:44;;;;;;;35.72;20.15;;;;;;;;;;5018161;28;20017;-69
2022/01/27 07:54:29;;;;;;;35.13;19.70;;;;;;;;;;5016158;28;20064;-75
2022/01/27 07:57:15;;;;;;;36.33;20.20;;;;;;;;;;5029226;28;20692;-75
2022/01/27 08:00:01;;;;;;;37.92;20.42;;;;;;;;;;5031906;28;20024;-75
2022/01/27 08:02:46;;;;;;;36.25;19.85;;;;;;;;;;5016527;28;20017;-76
2022/01/27 08:05:32;;;;;;;39.85;21.90;;;;;;;;;;5025545;28;20045;-74
2022/01/27 08:08:18;;;;;;;40.58;22.92;;;;;;;;;;5035531;28;20029;-68
2022/01/27 08:11:03;;;;;;;38.42;21.77;;;;;;;;;;5030720;28;20021;-71
2022/01/27 08:13:49;;;;;;;43.40;21.15;;;;;;;;;;5029240;28;20026;-69
2022/01/27 08:16:34;;;;;;;38.85;20.75;;;;;;;;;;5015237;28;20519;-71
2022/01/27 08:19:20;;;;;;;40.33;20.80;;;;;;;;;;5015183;28;20021;-69
2022/01/27 08:22:07;;;;;;;39.90;19.90;;;;;;;;;;5027513;28;20033;-71
2022/01/27 08:24:53;;;;;;;36.28;20.33;;;;;;;;;;5015995;28;20117;-70
2022/01/27 08:27:41;;;;;;;37.15;19.98;;;;;;;;;;5031366;28;20436;-69
2022/01/27 08:30:29;;;;;;;39.92;20.65;;;;;;;;;;5030321;28;20025;-68
2022/01/27 08:33:18;;;;;;;32.20;18.35;;;;;;;;;;5025891;28;20029;-70
2022/01/27 08:36:04;;;;;;;35.72;19.92;;;;;;;;;;5030393;28;20037;-68
2022/01/27 08:38:50;;;;;;;37.78;19.38;;;;;;;;;;5027850;28;20539;-69
2022/01/27 08:41:36;;;;;;;43.00;20.60;;;;;;;;;;5032012;28;20053;-69
2022/01/27 08:44:22;;;;;;;35.03;19.08;;;;;;;;;;5040214;28;20112;-65
2022/01/27 08:47:07;;;;;;;36.83;19.45;;;;;;;;;;5030267;28;20032;-72
2022/01/27 08:49:53;;;;;;;40.67;20.30;;;;;;;;;;5039376;28;20083;-72
2022/01/27 08:52:39;;;;;;;40.10;21.17;;;;;;;;;;5029382;28;20439;-71
2022/01/27 08:55:25;;;;;;;37.88;20.35;;;;;;;;;;5030868;28;20021;-69
2022/01/27 08:58:11;;;;;;;42.78;21.40;;;;;;;;;;5028641;28;20033;-70
2022/01/27 09:00:56;;;;;;;42.67;21.65;;;;;;;;;;5028885;28;20053;-73
2022/01/27 09:03:42;;;;;;;44.20;21.67;;;;;;;;;;5013887;28;20030;-67
2022/01/27 09:06:28;;;;;;;43.53;21.27;;;;;;;;;;5029528;28;20120;-70
2022/01/27 09:09:14;;;;;;;41.22;20.80;;;;;;;;;;5029900;28;20072;-74
2022/01/27 09:12:00;;;;;;;40.20;20.23;;;;;;;;;;5015304;28;20017;-71
2022/01/27 09:14:46;;;;;;;43.28;21.23;;;;;;;;;;5020295;28;20076;-71
2022/01/27 09:17:38;;;;;;;38.90;19.80;;;;;;;;;;5028538;28;20037;-71
2022/01/27 09:20:25;;;;;;;38.17;20.58;;;;;;;;;;5025319;28;20148;-72
2022/01/27 09:23:14;;;;;;;36.30;18.83;;;;;;;;;;5029484;28;20120;-73
2022/01/27 09:26:05;;;;;;;34.83;17.23;;;;;;;;;;5012952;28;20028;-71
2022/01/27 09:28:51;;;;;;;38.10;18.00;;;;;;;;;;5028507;28;20037;-72
2022/01/27 09:31:36;;;;;;;37.17;19.17;;;;;;;;;;5029404;28;20021;-72
2022/01/27 09:34:22;;;;;;;32.45;18.73;;;;;;;;;;5031988;28;20021;-72
2022/01/27 09:37:08;;;;;;;34.88;17.42;;;;;;;;;;5029020;28;20056;-72
2022/01/27 09:39:53;;;;;;;32.08;16.40;;;;;;;;;;5015559;28;20091;-68
2022/01/27 09:42:41;;;;;;;29.63;16.42;;;;;;;;;;5006917;28;20053;-69
2022/01/27 09:45:28;;;;;;;31.90;16.98;;;;;;;;;;5006178;28;20018;-70
2022/01/27 09:48:16;;;;;;;32.20;16.40;;;;;;;;;;4990281;28;20041;-71
2022/01/27 09:51:23;;;;;;;31.02;15.38;;;;;;;;;;4995624;28;20408;-69
2022/01/27 09:54:08;;;;;;;30.92;15.85;;;;;;;;;;5007561;28;20030;-70
2022/01/27 09:56:53;;;;;;;28.48;14.85;;;;;;;;;;4993383;28;20069;-69
2022/01/27 09:59:39;;;;;;;28.67;15.25;;;;;;;;;;4994742;28;20389;-71
2022/01/27 10:02:27;;;;;;;29.15;14.43;;;;;;;;;;5007989;28;20030;-67
2022/01/27 10:05:21;;;;;;;26.33;13.63;;;;;;;;;;4993996;28;20021;-67
2022/01/27 10:08:10;;;;;;;26.10;13.13;;;;;;;;;;5007998;28;20018;-69
2022/01/27 10:10:58;;;;;;;23.58;12.48;;;;;;;;;;4997436;28;20041;-69
2022/01/27 10:13:46;;;;;;;27.70;13.95;;;;;;;;;;4994017;28;20051;-67
2022/01/27 10:16:41;;;;;;;25.63;13.32;;;;;;;;;;4994941;28;20501;-72
2022/01/27 10:19:27;;;;;;;26.65;13.52;;;;;;;;;;5009795;28;20552;-68
2022/01/27 10:22:15;;;;;;;28.10;13.35;;;;;;;;;;5008580;28;20034;-70
2022/01/27 10:25:03;;;;;;;26.33;13.23;;;;;;;;;;5009047;28;20014;-68
2022/01/27 10:28:08;;;;;;;29.08;12.93;;;;;;;;;;5011138;28;20033;-67
2022/01/27 10:31:00;;;;;;;24.02;12.50;;;;;;;;;;4997389;28;20367;-69
2022/01/27 10:34:01;;;;;;;25.30;14.05;;;;;;;;;;4992641;28;20096;-69
2022/01/27 10:36:47;;;;;;;26.15;11.98;;;;;;;;;;5006633;28;20400;-76
2022/01/27 10:39:32;;;;;;;19.70;11.30;;;;;;;;;;5002932;28;20036;-69
2022/01/27 10:42:22;;;;;;;25.45;11.75;;;;;;;;;;5023975;28;20057;-66
2022/01/27 10:45:08;;;;;;;20.50;11.48;;;;;;;;;;5021060;28;20029;-65
2022/01/27 10:48:19;;;;;;;25.60;11.38;;;;;;;;;;5034429;28;20028;-68
2022/01/27 10:54:01;;;;;;;25.88;11.98;;;;;;;;;;5037204;28;20092;-73
2022/01/27 10:56:48;;;;;;;21.45;11.40;;;;;;;;;;5036066;28;20116;-73
2022/01/27 10:59:34;;;;;;;20.80;10.43;;;;;;;;;;5028157;28;20025;-71
2022/01/27 11:02:20;;;;;;;25.08;11.88;;;;;;;;;;5034688;28;20044;-71
2022/01/27 11:05:15;;;;;;;22.33;10.52;;;;;;;;;;5034942;28;20373;-70
2022/01/27 11:08:03;;;;;;;20.35;11.05;;;;;;;;;;5010188;28;20028;-71
2022/01/27 11:10:49;;;;;;;22.13;11.48;;;;;;;;;;5033427;28;20116;-70
2022/01/27 11:13:35;;;;;;;21.23;12.00;;;;;;;;;;5032550;28;20432;-69
2022/01/27 11:16:27;;;;;;;20.58;12.13;;;;;;;;;;5033497;28;20033;-76
2022/01/27 11:19:34;;;;;;;21.23;12.15;;;;;;;;;;5009104;28;20025;-75
2022/01/27 11:25:49;;;;;;;24.00;11.88;;;;;;;;;;5033760;28;20074;-74
2022/01/27 11:28:14;;;;;;;25.00;12.05;;;;;;;;;;5039449;28;20024;-74
2022/01/27 11:31:08;;;;;;;20.92;12.15;;;;;;;;;;5014542;28;20025;-71
2022/01/27 11:33:59;;;;;;;24.58;13.18;;;;;;;;;;5014938;28;20014;-74
2022/01/27 11:37:01;;;;;;;23.17;13.52;;;;;;;;;;5041010;28;20033;-74
2022/01/27 11:39:47;;;;;;;22.58;11.82;;;;;;;;;;5024894;28;20076;-74
2022/01/27 11:42:37;;;;;;;23.70;13.32;;;;;;;;;;5034545;28;20054;-75
2022/01/27 11:45:23;;;;;;;26.65;12.90;;;;;;;;;;5019169;28;20030;-75
2022/01/27 11:48:11;;;;;;;23.58;13.23;;;;;;;;;;5033713;28;20491;-69
2022/01/27 11:51:08;;;;;;;24.48;12.75;;;;;;;;;;5015624;28;20049;-72
2022/01/27 11:53:56;;;;;;;22.02;13.02;;;;;;;;;;5023234;28;20025;-75
2022/01/27 11:56:41;;;;;;;20.88;11.98;;;;;;;;;;5015322;28;20033;-77
2022/01/27 11:59:37;;;;;;;21.05;11.75;;;;;;;;;;5017188;28;20168;-72
2022/01/27 12:02:22;;;;;;;26.92;13.05;;;;;;;;;;5027031;28;20110;-74
2022/01/27 12:05:11;;;;;;;24.30;12.40;;;;;;;;;;5028746;28;20017;-73
2022/01/27 12:08:12;;;;;;;24.45;12.85;;;;;;;;;;5016645;28;20029;-68
2022/01/27 12:11:01;;;;;;;24.85;12.98;;;;;;;;;;5029351;28;20034;-79
2022/01/27 12:13:50;;;;;;;23.10;12.77;;;;;;;;;;5030641;28;20374;-75
2022/01/27 12:19:21;;;;;;;28.38;13.35;;;;;;;;;;5026558;28;20155;-75
2022/01/27 12:22:09;;;;;;;21.73;13.13;;;;;;;;;;5028937;28;20397;-75
2022/01/27 12:24:59;;;;;;;23.20;14.05;;;;;;;;;;5029450;28;20021;-68
2022/01/27 12:27:44;;;;;;;;;;;;;;;;;;5021580;28;20029;-75
2022/01/27 12:30:30;;;;;;;24.30;13.10;;;;;;;;;;5024156;28;19909;-72
2022/01/27 12:33:17;;;;;;;23.35;12.50;;;;;;;;;;5019073;28;20477;-75
2022/01/27 12:36:03;;;;;;;22.17;12.23;;;;;;;;;;5030393;28;20333;-75
2022/01/27 12:38:49;;;;;;;24.48;14.25;;;;;;;;;;5014463;28;20029;-75
2022/01/27 12:41:37;;;;;;;23.20;12.75;;;;;;;;;;5023962;28;20144;-75
2022/01/27 12:44:24;;;;;;;21.42;12.23;;;;;;;;;;5030532;28;20163;-76
2022/01/27 12:47:14;;;;;;;20.90;12.32;;;;;;;;;;5029692;28;20413;-69
2022/01/27 12:50:07;;;;;;;23.50;13.48;;;;;;;;;;5024728;28;20394;-69
2022/01/27 12:52:58;;;;;;;19.15;12.23;;;;;;;;;;5030151;28;20036;-72
2022/01/27 12:55:44;;;;;;;23.08;13.40;;;;;;;;;;5013754;28;20036;-72
2022/01/27 12:58:30;;;;;;;23.08;13.20;;;;;;;;;;5036474;28;20057;-72
2022/01/27 13:01:16;;;;;;;23.27;12.10;;;;;;;;;;5020129;28;20029;-72
2022/01/27 13:04:02;;;;;;;21.23;12.98;;;;;;;;;;5029607;28;20036;-70
2022/01/27 13:06:55;;;;;;;23.13;11.85;;;;;;;;;;5015879;28;20017;-71
2022/01/27 13:09:41;;;;;;;24.42;14.15;;;;;;;;;;5015807;28;20052;-74
2022/01/27 13:12:51;;;;;;;20.55;12.18;;;;;;;;;;5026593;28;20021;-72
2022/01/27 13:15:36;;;;;;;23.15;12.98;;;;;;;;;;5029575;28;20035;-73
2022/01/27 13:18:27;;;;;;;24.63;13.23;;;;;;;;;;5026362;28;20040;-72
2022/01/27 13:21:37;;;;;;;20.55;12.00;;;;;;;;;;5027311;28;20045;-72
2022/01/27 13:24:22;;;;;;;20.88;12.07;;;;;;;;;;5027222;28;20242;-69
2022/01/27 13:27:09;;;;;;;22.70;12.35;;;;;;;;;;5029243;28;20034;-69
2022/01/27 13:29:58;;;;;;;21.98;11.73;;;;;;;;;;5022567;28;20039;-72
2022/01/27 13:32:45;;;;;;;18.42;11.27;;;;;;;;;;5014628;28;20032;-69
2022/01/27 13:35:31;;;;;;;23.05;13.32;;;;;;;;;;5012199;28;20118;-72
2022/01/27 13:38:22;;;;;;;21.92;12.07;;;;;;;;;;5026681;28;20033;-70
2022/01/27 13:41:24;;;;;;;25.58;12.45;;;;;;;;;;5024572;28;20103;-71
2022/01/27 13:44:10;;;;;;;20.58;12.73;;;;;;;;;;5020282;28;20041;-68
2022/01/27 13:47:01;;;;;;;17.58;10.90;;;;;;;;;;5012039;28;20024;-67
2022/01/27 13:49:47;;;;;;;21.50;12.48;;;;;;;;;;5026551;28;20053;-66
2022/01/27 13:52:40;;;;;;;24.70;12.15;;;;;;;;;;5027428;28;20025;-67
2022/01/27 13:55:26;;;;;;;22.45;12.25;;;;;;;;;;5025864;28;20039;-67
2022/01/27 13:58:11;;;;;;;18.33;11.32;;;;;;;;;;5028441;28;20536;-74
2022/01/27 14:01:09;;;;;;;21.00;11.88;;;;;;;;;;5011066;28;20033;-72
2022/01/27 14:03:54;;;;;;;22.70;11.25;;;;;;;;;;5020677;28;20452;-71
2022/01/27 14:06:53;;;;;;;19.92;11.70;;;;;;;;;;5012786;28;20032;-73
2022/01/27 14:09:42;;;;;;;23.63;11.75;;;;;;;;;;5009219;28;20036;-73
2022/01/27 14:12:43;;;;;;;20.35;11.20;;;;;;;;;;5012894;28;20022;-73
2022/01/27 14:15:31;;;;;;;19.75;10.90;;;;;;;;;;5024668;28;20033;-71
2022/01/27 14:18:19;;;;;;;22.13;12.10;;;;;;;;;;5027910;28;20038;-71
2022/01/27 14:21:05;;;;;;;17.48;10.02;;;;;;;;;;5025470;28;20045;-70
2022/01/27 14:26:44;;;;;;;19.08;9.35;;;;;;;;;;5026709;28;20087;-70
2022/01/27 14:29:29;;;;;;;18.60;10.07;;;;;;;;;;5019587;28;20025;-70
2022/01/27 14:32:15;;;;;;;20.95;10.85;;;;;;;;;;5004460;28;20168;-71
2022/01/27 14:35:06;;;;;;;15.82;9.32;;;;;;;;;;5026463;28;20021;-70
2022/01/27 14:37:57;;;;;;;18.27;10.75;;;;;;;;;;5007328;28;20037;-71
2022/01/27 14:40:46;;;;;;;17.75;9.90;;;;;;;;;;5012848;28;20037;-71
2022/01/27 14:43:36;;;;;;;15.27;9.77;;;;;;;;;;5027232;28;20051;-71
2022/01/27 14:46:40;;;;;;;16.05;9.23;;;;;;;;;;5026396;28;20026;-71
2022/01/27 14:49:26;;;;;;;15.10;9.02;;;;;;;;;;5013474;28;20117;-72
2022/01/27 14:52:14;;;;;;;18.17;8.68;;;;;;;;;;5009089;28;20049;-74
2022/01/27 14:54:59;;;;;;;18.98;9.77;;;;;;;;;;5027619;28;20017;-70
2022/01/27 14:57:45;;;;;;;16.08;9.00;;;;;;;;;;5010500;28;20167;-74
2022/01/27 15:00:31;;;;;;;14.55;8.80;;;;;;;;;;5009454;28;20391;-74
2022/01/27 15:03:16;;;;;;;18.25;9.52;;;;;;;;;;5020133;28;20418;-73
2022/01/27 15:06:02;;;;;;;18.15;9.05;;;;;;;;;;5007822;28;20102;-76
2022/01/27 15:08:48;;;;;;;18.20;10.25;;;;;;;;;;5011435;28;20384;-81
2022/01/27 15:11:14;;;;;;;19.25;9.30;;;;;;;;;;5027516;28;20112;-69
2022/01/27 15:13:45;;;;;;;23.33;10.73;;;;;;;;;;5007661;28;20010;-66
2022/01/27 15:19:02;;;;;;;19.85;10.18;;;;;;;;;;5026374;28;20010;-72
2022/01/27 15:21:28;;;;;;;17.77;8.85;;;;;;;;;;5028834;28;20044;-72
2022/01/27 15:23:53;;;;;;;18.17;9.48;;;;;;;;;;5028140;28;20480;-71
2022/01/27 15:26:18;;;;;;;20.80;10.40;;;;;;;;;;5028808;28;20026;-72
2022/01/27 15:28:44;;;;;;;16.33;8.80;;;;;;;;;;5030686;28;20125;-71
2022/01/27 15:31:10;;;;;;;19.92;10.20;;;;;;;;;;5032320;28;20519;-66
2022/01/27 15:33:40;;;;;;;15.27;9.38;;;;;;;;;;5032272;28;20223;-66
2022/01/27 15:36:05;;;;;;;19.67;10.75;;;;;;;;;;5014450;28;20108;-65
2022/01/27 15:38:33;;;;;;;16.43;9.67;;;;;;;;;;5012743;28;20252;-66
2022/01/27 15:41:17;;;;;;;19.30;9.98;;;;;;;;;;5007723;28;20284;-65
2022/01/27 15:43:43;;;;;;;17.33;8.95;;;;;;;;;;5010573;28;20397;-64
2022/01/27 15:46:08;;;;;;;17.10;10.95;;;;;;;;;;5017397;28;20054;-68
2022/01/27 15:48:34;;;;;;;18.00;10.10;;;;;;;;;;4993585;28;20057;-68
2022/01/27 15:51:20;;;;;;;18.27;10.43;;;;;;;;;;5003099;28;20354;-70
2022/01/27 15:54:05;;;;;;;19.15;10.52;;;;;;;;;;4994473;28;20136;-68
2022/01/27 15:56:50;;;;;;;20.70;11.50;;;;;;;;;;4995548;28;20080;-68
2022/01/27 15:59:35;;;;;;;20.30;12.13;;;;;;;;;;4984638;28;20128;-69
2022/01/27 16:02:21;;;;;;;20.05;10.75;;;;;;;;;;4981189;28;20101;-69
2022/01/27 16:05:16;;;;;;;21.20;12.23;;;;;;;;;;4992711;28;20041;-71
2022/01/27 16:08:02;;;;;;;23.50;12.05;;;;;;;;;;4993791;28;20108;-68
2022/01/27 16:10:47;;;;;;;24.42;12.75;;;;;;;;;;4993259;28;20108;-74
2022/01/27 16:13:33;;;;;;;25.52;13.75;;;;;;;;;;4996113;28;20026;-75
2022/01/27 16:16:18;;;;;;;21.23;11.65;;;;;;;;;;4995118;28;20120;-74
2022/01/27 16:19:04;;;;;;;22.25;12.57;;;;;;;;;;4996150;28;20057;-74
2022/01/27 16:21:49;;;;;;;19.98;11.30;;;;;;;;;;4991780;28;21743;-76
2022/01/27 16:24:34;;;;;;;26.25;14.13;;;;;;;;;;4993909;28;20032;-73
2022/01/27 16:27:20;;;;;;;23.83;12.80;;;;;;;;;;4975788;28;20456;-76
2022/01/27 16:30:07;;;;;;;23.10;12.52;;;;;;;;;;4984673;28;20182;-72
2022/01/27 16:32:52;;;;;;;23.75;11.55;;;;;;;;;;4999216;28;20454;-71
2022/01/27 16:35:37;;;;;;;19.90;11.15;;;;;;;;;;4995621;28;20029;-71
2022/01/27 16:38:25;;;;;;;22.27;11.43;;;;;;;;;;4981031;28;20044;-73
2022/01/27 16:41:10;;;;;;;20.52;11.98;;;;;;;;;;5003027;28;20053;-73
2022/01/27 16:43:56;;;;;;;20.63;11.65;;;;;;;;;;5007407;28;20404;-66
2022/01/27 16:46:41;;;;;;;21.98;13.25;;;;;;;;;;5005414;28;20047;-71
2022/01/27 16:49:26;;;;;;;18.85;11.95;;;;;;;;;;5026345;28;20377;-70
2022/01/27 16:52:12;;;;;;;20.33;13.07;;;;;;;;;;5002563;28;20033;-70
2022/01/27 16:54:57;;;;;;;23.48;12.57;;;;;;;;;;5001209;28;20388;-69
2022/01/27 16:57:42;;;;;;;22.60;12.95;;;;;;;;;;5007500;28;20065;-70
2022/01/27 17:00:28;;;;;;;19.38;12.27;;;;;;;;;;5014849;28;20021;-70
2022/01/27 17:03:13;;;;;;;24.23;13.23;;;;;;;;;;4992169;28;20157;-73
2022/01/27 17:05:58;;;;;;;22.80;14.10;;;;;;;;;;5001279;28;20110;-68
2022/01/27 17:08:43;;;;;;;21.75;12.88;;;;;;;;;;5013185;28;20109;-71